sensor_id;sensor_type;location;lat;lon;timestamp;P1;durP1;ratioP1;P2;durP2;ratioP2
76818;SDS011;65772;51.096;17.006;2023-05-28T00:00:18;7.20;;;3.20;;
76818;SDS011;65772;51.096;17.006;2023-05-28T00:02:49;8.10;;;3.40;;
76818;SDS011;65772;51.096;17.006;2023-05-28T00:05:20;9.60;;;3.00;;
76818;SDS011;65772;51.096;17.006;2023-05-28T00:07:50;6.50;;;3.20;;
76818;SDS011;65772;51.096;17.006;2023-05-28T00:10:21;6.80;;;3.10;;
76818;SDS011;65772;51.096;17.006;2023-05-28T00:12:51;9.60;;;3.10;;
76818;SDS011;65772;51.096;17.006;2023-05-28T00:15:22;7.20;;;3.30;;
76818;SDS011;65772;51.096;17.006;2023-05-28T00:17:52;6.50;;;3.00;;
76818;SDS011;65772;51.096;17.006;2023-05-28T00:20:24;8.30;;;3.00;;
76818;SDS011;65772;51.096;17.006;2023-05-28T00:22:55;6.00;;;2.80;;
76818;SDS011;65772;51.096;17.006;2023-05-28T00:25:25;6.60;;;3.20;;
76818;SDS011;65772;51.096;17.006;2023-05-28T00:27:56;7.80;;;3.50;;
76818;SDS011;65772;51.096;17.006;2023-05-28T00:30:27;6.00;;;3.10;;
76818;SDS011;65772;51.096;17.006;2023-05-28T00:32:57;8.60;;;3.20;;
76818;SDS011;65772;51.096;17.006;2023-05-28T00:35:28;8.20;;;3.20;;
76818;SDS011;65772;51.096;17.006;2023-05-28T00:37:59;8.00;;;3.30;;
76818;SDS011;65772;51.096;17.006;2023-05-28T00:40:29;6.40;;;3.10;;
76818;SDS011;65772;51.096;17.006;2023-05-28T00:43:00;5.10;;;3.00;;
76818;SDS011;65772;51.096;17.006;2023-05-28T00:45:30;7.50;;;3.00;;
76818;SDS011;65772;51.096;17.006;2023-05-28T00:48:01;6.20;;;2.90;;
76818;SDS011;65772;51.096;17.006;2023-05-28T00:50:32;6.90;;;3.10;;
76818;SDS011;65772;51.096;17.006;2023-05-28T00:53:03;14.60;;;8.00;;
76818;SDS011;65772;51.096;17.006;2023-05-28T00:55:35;14.90;;;8.50;;
76818;SDS011;65772;51.096;17.006;2023-05-28T00:58:06;8.70;;;4.30;;
76818;SDS011;65772;51.096;17.006;2023-05-28T01:00:37;9.10;;;3.50;;
76818;SDS011;65772;51.096;17.006;2023-05-28T01:03:10;7.80;;;3.20;;
76818;SDS011;65772;51.096;17.006;2023-05-28T01:05:41;8.30;;;3.20;;
76818;SDS011;65772;51.096;17.006;2023-05-28T01:08:12;7.60;;;3.40;;
76818;SDS011;65772;51.096;17.006;2023-05-28T01:10:43;7.30;;;3.40;;
76818;SDS011;65772;51.096;17.006;2023-05-28T01:13:15;9.80;;;3.80;;
76818;SDS011;65772;51.096;17.006;2023-05-28T01:15:48;6.70;;;3.60;;
76818;SDS011;65772;51.096;17.006;2023-05-28T01:18:19;7.00;;;3.30;;
76818;SDS011;65772;51.096;17.006;2023-05-28T01:20:50;7.80;;;3.30;;
76818;SDS011;65772;51.096;17.006;2023-05-28T01:23:21;10.10;;;3.40;;
76818;SDS011;65772;51.096;17.006;2023-05-28T01:25:58;7.90;;;3.30;;
76818;SDS011;65772;51.096;17.006;2023-05-28T01:30:58;6.60;;;3.40;;
76818;SDS011;65772;51.096;17.006;2023-05-28T01:33:29;7.20;;;2.90;;
76818;SDS011;65772;51.096;17.006;2023-05-28T01:36:01;8.80;;;3.20;;
76818;SDS011;65772;51.096;17.006;2023-05-28T01:38:34;8.40;;;3.30;;
76818;SDS011;65772;51.096;17.006;2023-05-28T01:41:07;9.20;;;3.80;;
76818;SDS011;65772;51.096;17.006;2023-05-28T01:46:09;7.90;;;3.50;;
76818;SDS011;65772;51.096;17.006;2023-05-28T01:48:40;7.00;;;3.30;;
76818;SDS011;65772;51.096;17.006;2023-05-28T01:51:13;9.10;;;3.70;;
76818;SDS011;65772;51.096;17.006;2023-05-28T01:53:45;7.00;;;3.30;;
76818;SDS011;65772;51.096;17.006;2023-05-28T01:56:17;6.80;;;3.30;;
76818;SDS011;65772;51.096;17.006;2023-05-28T01:58:48;7.00;;;3.40;;
76818;SDS011;65772;51.096;17.006;2023-05-28T02:01:20;7.10;;;3.50;;
76818;SDS011;65772;51.096;17.006;2023-05-28T02:06:26;7.60;;;3.50;;
76818;SDS011;65772;51.096;17.006;2023-05-28T02:08:58;8.00;;;3.20;;
76818;SDS011;65772;51.096;17.006;2023-05-28T02:11:29;7.40;;;3.90;;
76818;SDS011;65772;51.096;17.006;2023-05-28T02:14:00;8.10;;;3.40;;
76818;SDS011;65772;51.096;17.006;2023-05-28T02:16:31;8.90;;;3.50;;
76818;SDS011;65772;51.096;17.006;2023-05-28T02:19:03;5.90;;;3.10;;
76818;SDS011;65772;51.096;17.006;2023-05-28T02:24:04;6.60;;;3.40;;
76818;SDS011;65772;51.096;17.006;2023-05-28T02:26:35;7.00;;;3.60;;
76818;SDS011;65772;51.096;17.006;2023-05-28T02:29:06;6.10;;;3.30;;
76818;SDS011;65772;51.096;17.006;2023-05-28T02:31:36;7.70;;;3.40;;
76818;SDS011;65772;51.096;17.006;2023-05-28T02:34:07;8.50;;;4.00;;
76818;SDS011;65772;51.096;17.006;2023-05-28T02:36:37;8.20;;;3.40;;
76818;SDS011;65772;51.096;17.006;2023-05-28T02:39:08;9.00;;;3.90;;
76818;SDS011;65772;51.096;17.006;2023-05-28T02:41:39;7.10;;;3.50;;
76818;SDS011;65772;51.096;17.006;2023-05-28T02:44:09;7.20;;;3.40;;
76818;SDS011;65772;51.096;17.006;2023-05-28T02:46:40;8.30;;;3.70;;
76818;SDS011;65772;51.096;17.006;2023-05-28T02:49:10;9.30;;;3.40;;
76818;SDS011;65772;51.096;17.006;2023-05-28T02:51:41;10.90;;;4.10;;
76818;SDS011;65772;51.096;17.006;2023-05-28T02:54:34;7.40;;;3.60;;
76818;SDS011;65772;51.096;17.006;2023-05-28T02:57:05;9.50;;;3.80;;
76818;SDS011;65772;51.096;17.006;2023-05-28T02:59:35;7.80;;;3.90;;
76818;SDS011;65772;51.096;17.006;2023-05-28T03:02:07;7.90;;;3.50;;
76818;SDS011;65772;51.096;17.006;2023-05-28T03:04:37;9.80;;;3.80;;
76818;SDS011;65772;51.096;17.006;2023-05-28T03:07:08;10.60;;;4.10;;
76818;SDS011;65772;51.096;17.006;2023-05-28T03:09:38;7.10;;;3.50;;
76818;SDS011;65772;51.096;17.006;2023-05-28T03:12:10;7.00;;;3.50;;
76818;SDS011;65772;51.096;17.006;2023-05-28T03:14:40;7.90;;;4.20;;
76818;SDS011;65772;51.096;17.006;2023-05-28T03:17:11;8.10;;;3.50;;
76818;SDS011;65772;51.096;17.006;2023-05-28T03:19:42;11.10;;;3.70;;
76818;SDS011;65772;51.096;17.006;2023-05-28T03:22:13;9.90;;;3.40;;
76818;SDS011;65772;51.096;17.006;2023-05-28T03:24:44;10.70;;;3.90;;
76818;SDS011;65772;51.096;17.006;2023-05-28T03:27:17;6.80;;;3.50;;
76818;SDS011;65772;51.096;17.006;2023-05-28T03:29:48;8.70;;;4.00;;
76818;SDS011;65772;51.096;17.006;2023-05-28T03:32:23;14.20;;;5.60;;
76818;SDS011;65772;51.096;17.006;2023-05-28T03:34:54;13.10;;;5.70;;
76818;SDS011;65772;51.096;17.006;2023-05-28T03:37:28;14.60;;;7.50;;
76818;SDS011;65772;51.096;17.006;2023-05-28T03:39:59;22.70;;;10.90;;
76818;SDS011;65772;51.096;17.006;2023-05-28T03:42:32;36.10;;;17.20;;
76818;SDS011;65772;51.096;17.006;2023-05-28T03:45:03;86.30;;;40.20;;
76818;SDS011;65772;51.096;17.006;2023-05-28T03:47:35;130.50;;;62.50;;
76818;SDS011;65772;51.096;17.006;2023-05-28T03:50:07;171.00;;;77.90;;
76818;SDS011;65772;51.096;17.006;2023-05-28T03:52:40;203.20;;;95.50;;
76818;SDS011;65772;51.096;17.006;2023-05-28T03:55:10;222.30;;;108.00;;
76818;SDS011;65772;51.096;17.006;2023-05-28T03:57:41;176.70;;;83.00;;
76818;SDS011;65772;51.096;17.006;2023-05-28T04:00:14;139.50;;;63.90;;
76818;SDS011;65772;51.096;17.006;2023-05-28T04:02:45;70.20;;;35.40;;
76818;SDS011;65772;51.096;17.006;2023-05-28T04:05:16;38.50;;;18.50;;
76818;SDS011;65772;51.096;17.006;2023-05-28T04:07:48;28.80;;;13.20;;
76818;SDS011;65772;51.096;17.006;2023-05-28T04:10:19;21.70;;;10.00;;
76818;SDS011;65772;51.096;17.006;2023-05-28T04:12:49;19.00;;;8.50;;
76818;SDS011;65772;51.096;17.006;2023-05-28T04:15:22;18.50;;;7.70;;
76818;SDS011;65772;51.096;17.006;2023-05-28T04:17:53;21.60;;;9.90;;
76818;SDS011;65772;51.096;17.006;2023-05-28T04:20:23;25.00;;;11.30;;
76818;SDS011;65772;51.096;17.006;2023-05-28T04:22:54;27.20;;;12.00;;
76818;SDS011;65772;51.096;17.006;2023-05-28T04:25:25;33.10;;;15.50;;
76818;SDS011;65772;51.096;17.006;2023-05-28T04:27:58;36.40;;;16.10;;
76818;SDS011;65772;51.096;17.006;2023-05-28T04:30:29;28.50;;;11.90;;
76818;SDS011;65772;51.096;17.006;2023-05-28T04:33:00;29.40;;;12.70;;
76818;SDS011;65772;51.096;17.006;2023-05-28T04:35:31;37.50;;;14.70;;
76818;SDS011;65772;51.096;17.006;2023-05-28T04:38:02;33.30;;;14.60;;
76818;SDS011;65772;51.096;17.006;2023-05-28T04:40:32;44.20;;;17.60;;
76818;SDS011;65772;51.096;17.006;2023-05-28T04:43:03;49.30;;;18.70;;
76818;SDS011;65772;51.096;17.006;2023-05-28T04:45:35;47.30;;;17.00;;
76818;SDS011;65772;51.096;17.006;2023-05-28T04:48:06;38.60;;;15.30;;
76818;SDS011;65772;51.096;17.006;2023-05-28T04:50:37;38.80;;;15.40;;
76818;SDS011;65772;51.096;17.006;2023-05-28T04:53:08;29.80;;;12.00;;
76818;SDS011;65772;51.096;17.006;2023-05-28T04:55:39;26.60;;;10.20;;
76818;SDS011;65772;51.096;17.006;2023-05-28T04:58:10;27.00;;;9.00;;
76818;SDS011;65772;51.096;17.006;2023-05-28T05:00:41;21.80;;;8.60;;
76818;SDS011;65772;51.096;17.006;2023-05-28T05:03:12;18.00;;;7.50;;
76818;SDS011;65772;51.096;17.006;2023-05-28T05:05:42;17.90;;;7.70;;
76818;SDS011;65772;51.096;17.006;2023-05-28T05:08:15;17.00;;;7.40;;
76818;SDS011;65772;51.096;17.006;2023-05-28T05:10:45;18.00;;;7.60;;
76818;SDS011;65772;51.096;17.006;2023-05-28T05:13:16;16.10;;;6.90;;
76818;SDS011;65772;51.096;17.006;2023-05-28T05:15:47;15.80;;;6.80;;
76818;SDS011;65772;51.096;17.006;2023-05-28T05:20:48;11.90;;;5.10;;
76818;SDS011;65772;51.096;17.006;2023-05-28T05:23:19;10.40;;;4.90;;
76818;SDS011;65772;51.096;17.006;2023-05-28T05:25:50;10.80;;;4.80;;
76818;SDS011;65772;51.096;17.006;2023-05-28T05:28:21;11.40;;;4.70;;
76818;SDS011;65772;51.096;17.006;2023-05-28T05:30:51;12.90;;;4.80;;
76818;SDS011;65772;51.096;17.006;2023-05-28T05:33:22;8.10;;;3.70;;
76818;SDS011;65772;51.096;17.006;2023-05-28T05:36:22;7.90;;;3.80;;
76818;SDS011;65772;51.096;17.006;2023-05-28T05:39:11;10.30;;;4.20;;
76818;SDS011;65772;51.096;17.006;2023-05-28T05:42:01;11.00;;;4.50;;
76818;SDS011;65772;51.096;17.006;2023-05-28T05:44:39;8.10;;;4.00;;
76818;SDS011;65772;51.096;17.006;2023-05-28T05:47:09;9.10;;;4.10;;
76818;SDS011;65772;51.096;17.006;2023-05-28T05:49:40;10.10;;;4.30;;
76818;SDS011;65772;51.096;17.006;2023-05-28T05:52:11;10.50;;;4.20;;
76818;SDS011;65772;51.096;17.006;2023-05-28T05:54:42;9.90;;;3.90;;
76818;SDS011;65772;51.096;17.006;2023-05-28T05:57:13;10.40;;;3.70;;
76818;SDS011;65772;51.096;17.006;2023-05-28T06:02:15;7.80;;;3.60;;
76818;SDS011;65772;51.096;17.006;2023-05-28T06:04:45;10.20;;;3.70;;
76818;SDS011;65772;51.096;17.006;2023-05-28T06:07:36;9.30;;;3.70;;
76818;SDS011;65772;51.096;17.006;2023-05-28T06:10:33;10.80;;;3.70;;
76818;SDS011;65772;51.096;17.006;2023-05-28T06:13:04;15.20;;;3.80;;
76818;SDS011;65772;51.096;17.006;2023-05-28T06:15:35;9.10;;;3.90;;
76818;SDS011;65772;51.096;17.006;2023-05-28T06:18:09;7.90;;;3.60;;
76818;SDS011;65772;51.096;17.006;2023-05-28T06:20:40;8.30;;;3.60;;
76818;SDS011;65772;51.096;17.006;2023-05-28T06:25:41;7.70;;;2.90;;
76818;SDS011;65772;51.096;17.006;2023-05-28T06:28:12;11.00;;;3.30;;
76818;SDS011;65772;51.096;17.006;2023-05-28T06:30:43;9.00;;;3.40;;
76818;SDS011;65772;51.096;17.006;2023-05-28T06:33:14;7.60;;;2.90;;
76818;SDS011;65772;51.096;17.006;2023-05-28T06:35:44;7.90;;;3.40;;
76818;SDS011;65772;51.096;17.006;2023-05-28T06:38:15;6.60;;;3.20;;
76818;SDS011;65772;51.096;17.006;2023-05-28T06:40:46;10.20;;;3.00;;
76818;SDS011;65772;51.096;17.006;2023-05-28T06:43:17;9.20;;;3.50;;
76818;SDS011;65772;51.096;17.006;2023-05-28T06:46:08;8.00;;;3.00;;
76818;SDS011;65772;51.096;17.006;2023-05-28T06:48:39;8.00;;;3.20;;
76818;SDS011;65772;51.096;17.006;2023-05-28T06:51:10;6.70;;;2.70;;
76818;SDS011;65772;51.096;17.006;2023-05-28T06:53:40;7.40;;;3.40;;
76818;SDS011;65772;51.096;17.006;2023-05-28T06:56:12;7.40;;;2.80;;
76818;SDS011;65772;51.096;17.006;2023-05-28T06:58:43;6.90;;;3.00;;
76818;SDS011;65772;51.096;17.006;2023-05-28T07:01:38;8.20;;;3.50;;
76818;SDS011;65772;51.096;17.006;2023-05-28T07:04:28;8.40;;;3.50;;
76818;SDS011;65772;51.096;17.006;2023-05-28T07:07:05;7.50;;;3.30;;
76818;SDS011;65772;51.096;17.006;2023-05-28T07:09:36;7.70;;;3.10;;
76818;SDS011;65772;51.096;17.006;2023-05-28T07:12:07;7.10;;;2.70;;
76818;SDS011;65772;51.096;17.006;2023-05-28T07:14:42;7.90;;;3.00;;
76818;SDS011;65772;51.096;17.006;2023-05-28T07:17:13;9.50;;;4.40;;
76818;SDS011;65772;51.096;17.006;2023-05-28T07:19:45;6.10;;;3.30;;
76818;SDS011;65772;51.096;17.006;2023-05-28T07:22:19;9.00;;;2.80;;
76818;SDS011;65772;51.096;17.006;2023-05-28T07:24:49;5.20;;;2.60;;
76818;SDS011;65772;51.096;17.006;2023-05-28T07:27:20;6.90;;;3.40;;
76818;SDS011;65772;51.096;17.006;2023-05-28T07:29:51;7.40;;;2.80;;
76818;SDS011;65772;51.096;17.006;2023-05-28T07:32:22;8.20;;;2.90;;
76818;SDS011;65772;51.096;17.006;2023-05-28T07:34:53;6.10;;;2.50;;
76818;SDS011;65772;51.096;17.006;2023-05-28T07:37:23;7.80;;;2.70;;
76818;SDS011;65772;51.096;17.006;2023-05-28T07:39:54;6.30;;;2.40;;
76818;SDS011;65772;51.096;17.006;2023-05-28T07:42:24;5.70;;;2.40;;
76818;SDS011;65772;51.096;17.006;2023-05-28T07:45:01;4.90;;;2.10;;
76818;SDS011;65772;51.096;17.006;2023-05-28T07:47:32;7.00;;;2.60;;
76818;SDS011;65772;51.096;17.006;2023-05-28T07:50:22;6.30;;;2.20;;
76818;SDS011;65772;51.096;17.006;2023-05-28T07:53:11;6.40;;;2.70;;
76818;SDS011;65772;51.096;17.006;2023-05-28T07:55:43;5.80;;;2.50;;
76818;SDS011;65772;51.096;17.006;2023-05-28T07:58:14;5.60;;;2.30;;
76818;SDS011;65772;51.096;17.006;2023-05-28T08:00:45;6.20;;;2.40;;
76818;SDS011;65772;51.096;17.006;2023-05-28T08:03:16;7.70;;;2.30;;
76818;SDS011;65772;51.096;17.006;2023-05-28T08:05:48;5.60;;;2.00;;
76818;SDS011;65772;51.096;17.006;2023-05-28T08:08:19;5.20;;;2.00;;
76818;SDS011;65772;51.096;17.006;2023-05-28T08:10:50;7.80;;;2.20;;
76818;SDS011;65772;51.096;17.006;2023-05-28T08:13:21;5.20;;;2.00;;
76818;SDS011;65772;51.096;17.006;2023-05-28T08:15:52;7.60;;;2.20;;
76818;SDS011;65772;51.096;17.006;2023-05-28T08:18:23;5.90;;;2.00;;
76818;SDS011;65772;51.096;17.006;2023-05-28T08:20:54;5.70;;;2.10;;
76818;SDS011;65772;51.096;17.006;2023-05-28T08:23:24;6.70;;;2.20;;
76818;SDS011;65772;51.096;17.006;2023-05-28T08:25:55;4.60;;;2.00;;
76818;SDS011;65772;51.096;17.006;2023-05-28T08:28:29;6.10;;;2.10;;
76818;SDS011;65772;51.096;17.006;2023-05-28T08:31:03;5.20;;;1.90;;
76818;SDS011;65772;51.096;17.006;2023-05-28T08:34:03;6.20;;;2.10;;
76818;SDS011;65772;51.096;17.006;2023-05-28T08:36:35;6.30;;;2.80;;
76818;SDS011;65772;51.096;17.006;2023-05-28T08:39:07;7.00;;;3.60;;
76818;SDS011;65772;51.096;17.006;2023-05-28T08:44:08;4.60;;;1.80;;
76818;SDS011;65772;51.096;17.006;2023-05-28T08:46:39;4.30;;;1.90;;
76818;SDS011;65772;51.096;17.006;2023-05-28T08:49:32;3.90;;;1.80;;
76818;SDS011;65772;51.096;17.006;2023-05-28T08:52:10;4.50;;;2.20;;
76818;SDS011;65772;51.096;17.006;2023-05-28T08:54:44;3.40;;;1.60;;
76818;SDS011;65772;51.096;17.006;2023-05-28T08:57:16;6.00;;;2.00;;
76818;SDS011;65772;51.096;17.006;2023-05-28T08:59:55;3.80;;;1.80;;
76818;SDS011;65772;51.096;17.006;2023-05-28T09:02:27;4.80;;;1.70;;
76818;SDS011;65772;51.096;17.006;2023-05-28T09:04:59;4.80;;;1.60;;
76818;SDS011;65772;51.096;17.006;2023-05-28T09:07:31;9.30;;;4.60;;
76818;SDS011;65772;51.096;17.006;2023-05-28T09:10:05;8.70;;;5.00;;
76818;SDS011;65772;51.096;17.006;2023-05-28T09:12:39;6.00;;;2.90;;
76818;SDS011;65772;51.096;17.006;2023-05-28T09:15:24;5.40;;;2.30;;
76818;SDS011;65772;51.096;17.006;2023-05-28T09:17:57;4.40;;;2.20;;
76818;SDS011;65772;51.096;17.006;2023-05-28T09:20:29;5.00;;;1.80;;
76818;SDS011;65772;51.096;17.006;2023-05-28T09:23:00;4.90;;;1.70;;
76818;SDS011;65772;51.096;17.006;2023-05-28T09:25:59;5.60;;;1.80;;
76818;SDS011;65772;51.096;17.006;2023-05-28T09:28:41;4.20;;;1.80;;
76818;SDS011;65772;51.096;17.006;2023-05-28T09:31:11;7.50;;;1.80;;
76818;SDS011;65772;51.096;17.006;2023-05-28T09:33:44;4.40;;;1.70;;
76818;SDS011;65772;51.096;17.006;2023-05-28T09:36:17;4.80;;;1.80;;
76818;SDS011;65772;51.096;17.006;2023-05-28T09:38:48;5.30;;;1.70;;
76818;SDS011;65772;51.096;17.006;2023-05-28T09:41:19;20.20;;;14.00;;
76818;SDS011;65772;51.096;17.006;2023-05-28T09:43:56;7.70;;;3.80;;
76818;SDS011;65772;51.096;17.006;2023-05-28T09:46:28;4.90;;;2.00;;
76818;SDS011;65772;51.096;17.006;2023-05-28T09:49:00;6.10;;;1.80;;
76818;SDS011;65772;51.096;17.006;2023-05-28T09:51:32;2.90;;;1.40;;
76818;SDS011;65772;51.096;17.006;2023-05-28T09:54:04;3.90;;;1.70;;
76818;SDS011;65772;51.096;17.006;2023-05-28T09:56:36;4.60;;;1.70;;
76818;SDS011;65772;51.096;17.006;2023-05-28T09:59:10;3.30;;;1.70;;
76818;SDS011;65772;51.096;17.006;2023-05-28T10:01:47;5.50;;;1.80;;
76818;SDS011;65772;51.096;17.006;2023-05-28T10:04:29;5.40;;;1.70;;
76818;SDS011;65772;51.096;17.006;2023-05-28T10:12:04;4.60;;;1.40;;
76818;SDS011;65772;51.096;17.006;2023-05-28T10:14:41;3.60;;;1.40;;
76818;SDS011;65772;51.096;17.006;2023-05-28T10:17:12;5.20;;;1.90;;
76818;SDS011;65772;51.096;17.006;2023-05-28T10:19:45;4.60;;;1.70;;
76818;SDS011;65772;51.096;17.006;2023-05-28T10:22:16;5.20;;;1.50;;
76818;SDS011;65772;51.096;17.006;2023-05-28T10:24:47;4.60;;;1.70;;
76818;SDS011;65772;51.096;17.006;2023-05-28T10:27:19;4.50;;;1.70;;
76818;SDS011;65772;51.096;17.006;2023-05-28T10:29:57;4.00;;;1.60;;
76818;SDS011;65772;51.096;17.006;2023-05-28T10:32:31;7.90;;;3.00;;
76818;SDS011;65772;51.096;17.006;2023-05-28T10:37:40;7.50;;;2.30;;
76818;SDS011;65772;51.096;17.006;2023-05-28T10:40:12;5.40;;;1.80;;
76818;SDS011;65772;51.096;17.006;2023-05-28T10:42:52;4.70;;;1.70;;
76818;SDS011;65772;51.096;17.006;2023-05-28T10:45:22;4.90;;;1.60;;
76818;SDS011;65772;51.096;17.006;2023-05-28T10:48:05;4.70;;;1.70;;
76818;SDS011;65772;51.096;17.006;2023-05-28T10:53:28;6.40;;;1.90;;
76818;SDS011;65772;51.096;17.006;2023-05-28T10:56:00;6.20;;;1.70;;
76818;SDS011;65772;51.096;17.006;2023-05-28T10:58:33;4.00;;;1.60;;
76818;SDS011;65772;51.096;17.006;2023-05-28T11:01:18;3.10;;;1.40;;
76818;SDS011;65772;51.096;17.006;2023-05-28T11:03:52;5.70;;;2.00;;
76818;SDS011;65772;51.096;17.006;2023-05-28T11:06:25;3.40;;;1.50;;
76818;SDS011;65772;51.096;17.006;2023-05-28T11:08:56;7.00;;;2.30;;
76818;SDS011;65772;51.096;17.006;2023-05-28T11:11:27;3.90;;;1.50;;
76818;SDS011;65772;51.096;17.006;2023-05-28T11:14:00;3.20;;;1.40;;
76818;SDS011;65772;51.096;17.006;2023-05-28T11:16:31;5.40;;;1.90;;
76818;SDS011;65772;51.096;17.006;2023-05-28T11:19:02;4.20;;;1.60;;
76818;SDS011;65772;51.096;17.006;2023-05-28T11:21:50;4.10;;;1.50;;
76818;SDS011;65772;51.096;17.006;2023-05-28T11:24:21;3.40;;;1.60;;
76818;SDS011;65772;51.096;17.006;2023-05-28T11:26:52;5.10;;;2.00;;
76818;SDS011;65772;51.096;17.006;2023-05-28T11:29:23;4.10;;;1.80;;
76818;SDS011;65772;51.096;17.006;2023-05-28T11:31:54;3.30;;;1.40;;
76818;SDS011;65772;51.096;17.006;2023-05-28T11:34:27;4.20;;;1.80;;
76818;SDS011;65772;51.096;17.006;2023-05-28T11:36:58;4.20;;;1.80;;
76818;SDS011;65772;51.096;17.006;2023-05-28T11:39:29;5.30;;;1.50;;
76818;SDS011;65772;51.096;17.006;2023-05-28T11:41:59;3.00;;;1.20;;
76818;SDS011;65772;51.096;17.006;2023-05-28T11:44:30;3.00;;;1.20;;
76818;SDS011;65772;51.096;17.006;2023-05-28T11:47:00;4.00;;;2.00;;
76818;SDS011;65772;51.096;17.006;2023-05-28T11:49:33;3.50;;;1.60;;
76818;SDS011;65772;51.096;17.006;2023-05-28T11:52:10;7.90;;;2.90;;
76818;SDS011;65772;51.096;17.006;2023-05-28T11:54:42;7.80;;;4.60;;
76818;SDS011;65772;51.096;17.006;2023-05-28T11:57:19;5.20;;;2.30;;
76818;SDS011;65772;51.096;17.006;2023-05-28T11:59:55;4.80;;;1.60;;
76818;SDS011;65772;51.096;17.006;2023-05-28T12:02:27;5.00;;;1.60;;
76818;SDS011;65772;51.096;17.006;2023-05-28T12:04:59;19.60;;;12.10;;
76818;SDS011;65772;51.096;17.006;2023-05-28T12:07:35;7.00;;;3.70;;
76818;SDS011;65772;51.096;17.006;2023-05-28T12:10:10;4.60;;;1.90;;
76818;SDS011;65772;51.096;17.006;2023-05-28T12:12:42;5.70;;;1.70;;
76818;SDS011;65772;51.096;17.006;2023-05-28T12:15:14;2.80;;;1.30;;
76818;SDS011;65772;51.096;17.006;2023-05-28T12:17:50;6.30;;;1.40;;
76818;SDS011;65772;51.096;17.006;2023-05-28T12:20:29;4.10;;;2.20;;
76818;SDS011;65772;51.096;17.006;2023-05-28T12:23:02;3.50;;;1.40;;
76818;SDS011;65772;51.096;17.006;2023-05-28T12:25:48;3.10;;;1.50;;
76818;SDS011;65772;51.096;17.006;2023-05-28T12:28:19;4.40;;;1.60;;
76818;SDS011;65772;51.096;17.006;2023-05-28T12:30:51;5.90;;;1.80;;
76818;SDS011;65772;51.096;17.006;2023-05-28T12:33:23;26.10;;;17.30;;
76818;SDS011;65772;51.096;17.006;2023-05-28T12:35:54;8.10;;;4.10;;
76818;SDS011;65772;51.096;17.006;2023-05-28T12:38:27;5.40;;;2.30;;
76818;SDS011;65772;51.096;17.006;2023-05-28T12:40:58;3.00;;;1.70;;
76818;SDS011;65772;51.096;17.006;2023-05-28T12:43:29;6.30;;;1.80;;
76818;SDS011;65772;51.096;17.006;2023-05-28T12:45:59;4.80;;;1.70;;
76818;SDS011;65772;51.096;17.006;2023-05-28T12:48:30;4.40;;;1.50;;
76818;SDS011;65772;51.096;17.006;2023-05-28T12:51:00;3.90;;;1.60;;
76818;SDS011;65772;51.096;17.006;2023-05-28T12:53:32;4.60;;;1.90;;
76818;SDS011;65772;51.096;17.006;2023-05-28T12:56:02;3.90;;;1.50;;
76818;SDS011;65772;51.096;17.006;2023-05-28T12:58:33;4.80;;;1.60;;
76818;SDS011;65772;51.096;17.006;2023-05-28T13:01:04;4.70;;;1.70;;
76818;SDS011;65772;51.096;17.006;2023-05-28T13:03:35;6.40;;;2.20;;
76818;SDS011;65772;51.096;17.006;2023-05-28T13:06:06;4.90;;;1.80;;
76818;SDS011;65772;51.096;17.006;2023-05-28T13:08:38;3.50;;;1.50;;
76818;SDS011;65772;51.096;17.006;2023-05-28T13:11:09;5.20;;;1.90;;
76818;SDS011;65772;51.096;17.006;2023-05-28T13:13:40;3.30;;;1.60;;
76818;SDS011;65772;51.096;17.006;2023-05-28T13:16:10;4.60;;;2.00;;
76818;SDS011;65772;51.096;17.006;2023-05-28T13:18:42;5.40;;;2.00;;
76818;SDS011;65772;51.096;17.006;2023-05-28T13:21:12;3.50;;;1.70;;
76818;SDS011;65772;51.096;17.006;2023-05-28T13:23:43;6.00;;;2.00;;
76818;SDS011;65772;51.096;17.006;2023-05-28T13:26:13;3.80;;;1.50;;
76818;SDS011;65772;51.096;17.006;2023-05-28T13:28:44;5.00;;;1.80;;
76818;SDS011;65772;51.096;17.006;2023-05-28T13:31:14;4.60;;;1.80;;
76818;SDS011;65772;51.096;17.006;2023-05-28T13:33:45;4.70;;;1.60;;
76818;SDS011;65772;51.096;17.006;2023-05-28T13:36:15;5.10;;;1.50;;
76818;SDS011;65772;51.096;17.006;2023-05-28T13:38:47;6.10;;;1.60;;
76818;SDS011;65772;51.096;17.006;2023-05-28T13:41:17;5.90;;;1.80;;
76818;SDS011;65772;51.096;17.006;2023-05-28T13:43:48;4.30;;;1.60;;
76818;SDS011;65772;51.096;17.006;2023-05-28T13:46:21;2.60;;;1.30;;
76818;SDS011;65772;51.096;17.006;2023-05-28T13:48:53;11.30;;;7.80;;
76818;SDS011;65772;51.096;17.006;2023-05-28T13:51:24;10.70;;;5.80;;
76818;SDS011;65772;51.096;17.006;2023-05-28T13:53:55;5.10;;;2.00;;
76818;SDS011;65772;51.096;17.006;2023-05-28T13:56:25;4.10;;;1.60;;
76818;SDS011;65772;51.096;17.006;2023-05-28T13:58:56;4.80;;;1.70;;
76818;SDS011;65772;51.096;17.006;2023-05-28T14:01:26;3.80;;;1.50;;
76818;SDS011;65772;51.096;17.006;2023-05-28T14:03:57;5.70;;;1.70;;
76818;SDS011;65772;51.096;17.006;2023-05-28T14:06:28;3.70;;;1.60;;
76818;SDS011;65772;51.096;17.006;2023-05-28T14:09:00;5.70;;;1.70;;
76818;SDS011;65772;51.096;17.006;2023-05-28T14:11:33;3.50;;;1.40;;
76818;SDS011;65772;51.096;17.006;2023-05-28T14:14:23;4.30;;;1.40;;
76818;SDS011;65772;51.096;17.006;2023-05-28T14:16:54;5.70;;;1.50;;
76818;SDS011;65772;51.096;17.006;2023-05-28T14:19:25;3.50;;;1.70;;
76818;SDS011;65772;51.096;17.006;2023-05-28T14:21:56;5.00;;;1.60;;
76818;SDS011;65772;51.096;17.006;2023-05-28T14:24:26;4.20;;;1.90;;
76818;SDS011;65772;51.096;17.006;2023-05-28T14:27:00;3.80;;;1.40;;
76818;SDS011;65772;51.096;17.006;2023-05-28T14:29:31;3.60;;;1.90;;
76818;SDS011;65772;51.096;17.006;2023-05-28T14:32:02;4.40;;;1.70;;
76818;SDS011;65772;51.096;17.006;2023-05-28T14:34:34;5.30;;;1.70;;
76818;SDS011;65772;51.096;17.006;2023-05-28T14:37:04;5.60;;;2.00;;
76818;SDS011;65772;51.096;17.006;2023-05-28T14:39:35;5.50;;;1.90;;
76818;SDS011;65772;51.096;17.006;2023-05-28T14:42:05;5.40;;;2.00;;
76818;SDS011;65772;51.096;17.006;2023-05-28T14:44:36;4.20;;;2.00;;
76818;SDS011;65772;51.096;17.006;2023-05-28T14:47:07;8.10;;;2.90;;
76818;SDS011;65772;51.096;17.006;2023-05-28T14:49:38;7.90;;;2.30;;
76818;SDS011;65772;51.096;17.006;2023-05-28T14:52:22;10.50;;;3.90;;
76818;SDS011;65772;51.096;17.006;2023-05-28T14:54:56;11.20;;;3.70;;
76818;SDS011;65772;51.096;17.006;2023-05-28T14:57:27;6.20;;;2.70;;
76818;SDS011;65772;51.096;17.006;2023-05-28T15:00:00;7.80;;;3.00;;
76818;SDS011;65772;51.096;17.006;2023-05-28T15:02:34;4.90;;;2.60;;
76818;SDS011;65772;51.096;17.006;2023-05-28T15:05:06;8.00;;;4.70;;
76818;SDS011;65772;51.096;17.006;2023-05-28T15:07:37;9.70;;;3.40;;
76818;SDS011;65772;51.096;17.006;2023-05-28T15:10:08;8.20;;;4.10;;
76818;SDS011;65772;51.096;17.006;2023-05-28T15:17:06;8.70;;;2.60;;
76818;SDS011;65772;51.096;17.006;2023-05-28T15:19:37;5.90;;;2.00;;
76818;SDS011;65772;51.096;17.006;2023-05-28T15:22:08;8.50;;;3.00;;
76818;SDS011;65772;51.096;17.006;2023-05-28T15:24:40;8.50;;;2.50;;
76818;SDS011;65772;51.096;17.006;2023-05-28T15:27:11;7.40;;;2.00;;
76818;SDS011;65772;51.096;17.006;2023-05-28T15:29:43;6.40;;;2.20;;
76818;SDS011;65772;51.096;17.006;2023-05-28T15:36:35;5.90;;;3.30;;
76818;SDS011;65772;51.096;17.006;2023-05-28T15:41:37;7.50;;;2.40;;
76818;SDS011;65772;51.096;17.006;2023-05-28T15:44:12;5.30;;;2.30;;